createdAt,value
2023-01-08T00:03:24.555Z,8.23
2023-01-08T00:08:26.030Z,8.20
2023-01-08T00:13:27.895Z,8.02
2023-01-08T00:18:29.333Z,7.89
2023-01-08T00:23:31.487Z,7.89
2023-01-08T00:28:33.666Z,7.91
2023-01-08T00:33:36.162Z,7.95
2023-01-08T00:38:37.786Z,8.04
2023-01-08T00:43:39.416Z,8.03
2023-01-08T00:48:40.889Z,8.06
2023-01-08T00:53:42.348Z,8.16
2023-01-08T00:58:43.827Z,8.25
2023-01-08T01:03:45.511Z,8.30
2023-01-08T01:08:46.995Z,8.35
2023-01-08T01:13:49.157Z,8.32
2023-01-08T01:18:52.326Z,8.31
2023-01-08T01:23:56.021Z,8.26
2023-01-08T01:28:58.390Z,8.13
2023-01-08T01:34:00.525Z,8.05
2023-01-08T01:39:01.999Z,7.98
2023-01-08T01:44:37.159Z,7.89
2023-01-08T01:49:41.349Z,7.87
2023-01-08T01:54:42.814Z,7.90
2023-01-08T01:59:45.969Z,7.96
2023-01-08T02:04:47.457Z,7.86
2023-01-08T02:09:54.930Z,7.79
2023-01-08T02:15:14.261Z,7.85
2023-01-08T02:20:54.624Z,7.91
2023-01-08T02:26:26.283Z,7.92
2023-01-08T02:31:30.065Z,7.88
2023-01-08T02:36:37.319Z,7.90
2023-01-08T02:41:56.932Z,7.97
2023-01-08T02:47:00.694Z,8.05
2023-01-08T02:52:05.430Z,8.13
2023-01-08T02:57:12.648Z,8.18
2023-01-08T03:02:14.265Z,8.21
2023-01-08T03:07:15.821Z,8.17
2023-01-08T03:12:24.706Z,8.17
2023-01-08T03:17:37.582Z,8.19
2023-01-08T03:22:41.767Z,8.28
2023-01-08T03:27:48.392Z,8.35
2023-01-08T03:32:51.952Z,8.43
2023-01-08T03:38:25.569Z,8.52
2023-01-08T03:43:28.191Z,8.52
2023-01-08T03:48:33.247Z,8.49
2023-01-08T03:53:34.695Z,8.46
2023-01-08T03:58:36.080Z,8.51
2023-01-08T04:03:37.503Z,8.64
2023-01-08T04:08:38.890Z,8.72
2023-01-08T04:13:40.280Z,8.74
2023-01-08T04:18:41.742Z,8.72
2023-01-08T04:23:43.231Z,8.73
2023-01-08T04:28:44.652Z,8.77
2023-01-08T04:33:46.101Z,8.80
2023-01-08T04:38:47.655Z,8.83
2023-01-08T04:43:49.085Z,8.82
2023-01-08T04:48:50.470Z,8.79
2023-01-08T04:53:52.147Z,8.76
2023-01-08T04:58:53.615Z,8.71
2023-01-08T05:04:00.011Z,8.63
2023-01-08T05:09:01.451Z,8.61
2023-01-08T05:14:03.129Z,8.73
2023-01-08T05:19:04.689Z,8.79
2023-01-08T05:24:06.433Z,8.85
2023-01-08T05:29:07.915Z,8.89
2023-01-08T05:34:09.404Z,8.93
2023-01-08T05:39:11.128Z,8.96
2023-01-08T05:44:12.873Z,8.83
2023-01-08T05:49:16.194Z,8.65
2023-01-08T05:54:18.289Z,8.62
2023-01-08T05:59:19.745Z,8.65
2023-01-08T06:04:21.455Z,8.77
2023-01-08T06:09:22.857Z,8.82
2023-01-08T06:14:24.696Z,8.92
2023-01-08T06:19:26.126Z,8.99
2023-01-08T06:24:27.581Z,9.11
2023-01-08T06:29:29.019Z,9.13
2023-01-08T06:34:30.431Z,9.16
2023-01-08T06:39:31.877Z,9.19
2023-01-08T06:44:33.347Z,9.23
2023-01-08T06:49:34.790Z,9.27
2023-01-08T06:54:36.213Z,9.22
2023-01-08T06:59:37.606Z,9.19
2023-01-08T07:04:39.025Z,9.18
2023-01-08T07:09:41.880Z,9.18
2023-01-08T07:14:43.263Z,9.23
2023-01-08T07:19:44.681Z,9.27
2023-01-08T07:24:46.104Z,9.28
2023-01-08T07:29:47.612Z,9.35
2023-01-08T07:34:49.118Z,9.37
2023-01-08T07:39:52.955Z,9.42
2023-01-08T07:44:54.470Z,9.49
2023-01-08T07:49:55.871Z,9.55
2023-01-08T07:54:57.361Z,9.60
2023-01-08T07:59:58.790Z,9.64
2023-01-08T08:05:00.223Z,9.69
2023-01-08T08:10:02.714Z,9.73
2023-01-08T08:15:04.651Z,9.78
2023-01-08T08:20:06.886Z,9.85
2023-01-08T08:25:09.107Z,9.88
2023-01-08T08:30:12.245Z,9.91
2023-01-08T08:35:13.698Z,9.93
2023-01-08T08:40:15.358Z,9.96
2023-01-08T08:45:16.832Z,9.98
2023-01-08T08:50:19.354Z,10.00
2023-01-08T08:55:20.834Z,10.01
2023-01-08T09:00:23.418Z,10.03
2023-01-08T09:05:26.217Z,10.04
2023-01-08T09:10:27.810Z,10.04
2023-01-08T09:15:29.303Z,10.11
2023-01-08T09:20:31.341Z,10.16
2023-01-08T09:25:32.945Z,10.27
2023-01-08T09:30:34.613Z,10.40
2023-01-08T09:35:36.406Z,10.46
2023-01-08T09:40:44.429Z,10.43
2023-01-08T09:45:51.013Z,10.45
2023-01-08T09:50:52.905Z,10.42
2023-01-08T09:56:10.032Z,10.50
2023-01-08T10:01:17.911Z,10.59
2023-01-08T10:06:19.695Z,10.59
2023-01-08T10:11:22.487Z,10.63
2023-01-08T10:16:31.013Z,10.78
2023-01-08T10:21:38.225Z,10.92
2023-01-08T10:26:39.823Z,10.99
2023-01-08T10:31:51.900Z,11.00
2023-01-08T10:36:55.148Z,11.07
2023-01-08T10:42:04.257Z,11.10
2023-01-08T10:47:06.387Z,11.22
2023-01-08T10:52:29.777Z,11.28
2023-01-08T10:57:32.802Z,11.44
2023-01-08T11:02:38.913Z,11.66
2023-01-08T11:07:41.467Z,11.89
2023-01-08T11:12:42.987Z,12.48
2023-01-08T11:17:45.061Z,12.85
2023-01-08T11:22:46.774Z,12.87
2023-01-08T11:27:51.191Z,13.43
2023-01-08T11:33:06.147Z,14.23
2023-01-08T11:38:10.199Z,14.28
2023-01-08T11:43:34.711Z,14.19
2023-01-08T11:48:57.956Z,14.16
2023-01-08T11:54:33.386Z,14.01
2023-01-08T12:00:02.681Z,13.72
2023-01-08T12:05:37.049Z,13.45
2023-01-08T12:11:33.108Z,13.13
2023-01-08T12:17:04.253Z,12.89
2023-01-08T12:22:20.998Z,12.77
2023-01-08T12:27:55.338Z,12.62
2023-01-08T12:33:13.366Z,12.39
2023-01-08T12:38:30.791Z,12.27
2023-01-08T12:43:43.846Z,12.33
2023-01-08T12:48:51.699Z,12.31
2023-01-08T12:54:07.436Z,12.32
2023-01-08T12:59:21.921Z,12.27
2023-01-08T13:04:23.628Z,12.33
2023-01-08T13:09:26.691Z,12.44
2023-01-08T13:14:28.700Z,12.55
2023-01-08T13:19:38.419Z,12.59
2023-01-08T13:24:42.746Z,12.62
2023-01-08T13:29:51.472Z,12.62
2023-01-08T13:35:17.059Z,12.61
2023-01-08T13:40:44.857Z,12.71
2023-01-08T13:45:59.945Z,12.57
2023-01-08T13:51:01.666Z,12.60
2023-01-08T13:56:07.862Z,12.57
2023-01-08T14:01:10.602Z,12.60
2023-01-08T14:06:18.262Z,12.47
2023-01-08T14:11:22.647Z,12.34
2023-01-08T14:16:24.660Z,12.30
2023-01-08T14:21:26.829Z,12.28
2023-01-08T14:26:36.529Z,12.24
2023-01-08T14:31:38.036Z,12.20
2023-01-08T14:36:41.356Z,12.09
2023-01-08T14:42:01.857Z,11.97
2023-01-08T14:47:03.764Z,12.01
2023-01-08T14:52:05.475Z,12.02
2023-01-08T14:57:07.033Z,11.98
2023-01-08T15:02:22.054Z,11.94
2023-01-08T15:07:29.795Z,11.90
2023-01-08T15:12:32.422Z,11.87
2023-01-08T15:17:33.972Z,11.71
2023-01-08T15:22:36.402Z,11.63
2023-01-08T15:27:39.760Z,11.63
2023-01-08T15:32:41.240Z,11.60
2023-01-08T15:37:42.816Z,11.57
2023-01-08T15:43:03.282Z,11.56
2023-01-08T15:48:04.976Z,11.53
2023-01-08T15:53:18.587Z,11.47
2023-01-08T15:58:20.012Z,11.45
2023-01-08T16:03:24.160Z,11.46
2023-01-08T16:08:25.581Z,11.49
2023-01-08T16:13:27.031Z,11.47
2023-01-08T16:18:28.656Z,11.45
2023-01-08T16:23:30.214Z,11.36
2023-01-08T16:28:31.624Z,11.32
2023-01-08T16:33:33.116Z,11.32
2023-01-08T16:38:35.955Z,11.32
2023-01-08T16:43:41.336Z,11.29
2023-01-08T16:48:42.926Z,11.25
2023-01-08T16:53:44.341Z,11.16
2023-01-08T16:58:50.052Z,11.11
2023-01-08T17:03:51.624Z,11.11
2023-01-08T17:08:53.064Z,11.08
2023-01-08T17:13:54.593Z,11.08
2023-01-08T17:18:57.082Z,11.06
2023-01-08T17:23:58.565Z,11.00
2023-01-08T17:29:00.038Z,10.99
2023-01-08T17:34:01.995Z,11.02
2023-01-08T17:39:03.637Z,11.05
2023-01-08T17:44:07.019Z,11.00
2023-01-08T17:49:11.341Z,10.96
2023-01-08T17:54:16.842Z,10.91
2023-01-08T17:59:20.122Z,10.84
2023-01-08T18:04:21.757Z,10.75
2023-01-08T18:09:23.275Z,10.72
2023-01-08T18:14:24.898Z,10.73
2023-01-08T18:19:26.555Z,10.67
2023-01-08T18:24:28.110Z,10.55
2023-01-08T18:29:29.713Z,10.38
2023-01-08T18:34:31.157Z,10.30
2023-01-08T18:39:33.240Z,10.30
2023-01-08T18:44:34.737Z,10.30
2023-01-08T18:49:36.159Z,10.34
2023-01-08T18:54:37.593Z,10.39
2023-01-08T18:59:39.062Z,10.39
2023-01-08T19:04:40.431Z,10.32
2023-01-08T19:09:41.908Z,10.25
2023-01-08T19:14:44.031Z,10.16
2023-01-08T19:19:46.229Z,10.11
2023-01-08T19:24:47.676Z,10.08
2023-01-08T19:29:49.654Z,10.02
2023-01-08T19:34:53.416Z,10.00
2023-01-08T19:39:54.970Z,10.03
2023-01-08T19:44:57.404Z,10.06
2023-01-08T19:49:58.969Z,10.07
2023-01-08T19:55:01.589Z,10.03
2023-01-08T20:00:04.607Z,9.96
2023-01-08T20:05:06.248Z,9.93
2023-01-08T20:10:10.966Z,9.94
2023-01-08T20:15:12.682Z,9.97
2023-01-08T20:20:14.151Z,9.99
2023-01-08T20:25:15.685Z,9.99
2023-01-08T20:30:17.465Z,9.99
2023-01-08T20:35:18.950Z,10.02
2023-01-08T20:40:20.401Z,10.03
2023-01-08T20:45:21.911Z,10.03
2023-01-08T20:50:23.385Z,10.02
2023-01-08T20:55:25.000Z,9.96
2023-01-08T21:00:26.487Z,9.80
2023-01-08T21:05:27.975Z,9.75
2023-01-08T21:10:29.502Z,9.79
2023-01-08T21:15:31.012Z,9.86
2023-01-08T21:20:32.468Z,9.90
2023-01-08T21:25:35.118Z,9.87
2023-01-08T21:30:36.573Z,9.63
2023-01-08T21:35:38.738Z,9.61
2023-01-08T21:40:40.229Z,9.64
2023-01-08T21:45:42.030Z,9.66
2023-01-08T21:50:44.042Z,9.64
2023-01-08T21:55:46.445Z,9.48
2023-01-08T22:00:47.950Z,9.45
2023-01-08T22:06:00.603Z,9.40
2023-01-08T22:11:07.688Z,9.45
2023-01-08T22:16:10.596Z,9.53
2023-01-08T22:21:13.028Z,9.56
2023-01-08T22:26:14.482Z,9.60
2023-01-08T22:31:16.387Z,9.62
2023-01-08T22:36:17.978Z,9.65
2023-01-08T22:41:22.043Z,9.58
2023-01-08T22:46:24.535Z,9.45
2023-01-08T22:51:27.576Z,9.40
2023-01-08T22:56:29.101Z,9.39
2023-01-08T23:01:30.886Z,9.45
2023-01-08T23:06:33.030Z,9.53
2023-01-08T23:11:34.568Z,9.59
2023-01-08T23:16:36.033Z,9.60
2023-01-08T23:21:38.654Z,9.65
2023-01-08T23:26:40.116Z,9.68
2023-01-08T23:31:43.960Z,9.65
2023-01-08T23:36:45.449Z,9.61
2023-01-08T23:41:46.843Z,9.56
2023-01-08T23:46:48.265Z,9.57
2023-01-08T23:51:49.671Z,9.61
2023-01-08T23:56:51.181Z,9.65
